Texas City — WDD4983 — position and weather

sailwx.info

Track history (hours):
 
Tides and Currents Weather Stations Pressure Air Temp Water Temp Dewpoint Dewpoint Depression Visibility Wind Speed Wind Dir Waves Ship Positions

Texas City

Owner: Marathon Petroleum Company LP, Findlay, OH. More information available from US FCC via Universal Licensing System and Coast Guard Vessel Documentation Center.

Last reported at 2015-Feb-25 05:09 UTC. Time now 2015-Feb-27 22:49 UTC.
Position N 29°49' W 090°04'.

Length 28 m; draft 3 m.

Type: Tug. MMSI: 367135470.

Date/timePositionNaut miles runAvg speedWind from/ knotsBaromVisibWave heightAir tempDewpointWater temp
2015-Feb-25 05:09N 29°49' W 090°04'49 3.6
2015-Feb-24 15:30N 29°34' W 090°57'5 4.7
2015-Feb-24 14:26N 29°37' W 091°02'4 5.1
2015-Feb-24 13:33N 29°38' W 091°07'4 4.0
2015-Feb-24 12:33N 29°41' W 091°10'3 3.2
2015-Feb-24 11:34N 29°40' W 091°14'3 2.7
2015-Feb-24 10:33N 29°39' W 091°17'5 4.6
2015-Feb-24 09:33N 29°39' W 091°22'5 5.1
2015-Feb-24 08:33N 29°40' W 091°27'5 4.8
2015-Feb-24 07:29N 29°43' W 091°33'  
2015-Feb-20 20:25N 29°23' W 094°53'  
Track history (hours):
 
Tides and Currents Weather Stations Pressure Air Temp Water Temp Dewpoint Dewpoint Depression Visibility Wind Speed Wind Dir Waves Ship Positions

Texas City

Owner: Marathon Petroleum Company LP, Findlay, OH. More information available from US FCC via Universal Licensing System and Coast Guard Vessel Documentation Center.

Last reported at 2015-Feb-25 05:09 UTC. Time now 2015-Feb-27 22:49 UTC.
Position N 29°49' W 090°04'.

Length 28 m; draft 3 m.

Type: Tug. MMSI: 367135470.

Date/timePositionNaut miles runAvg speedWind from/ knotsBaromVisibWave heightAir tempDewpointWater temp
2015-Feb-25 05:09N 29°49' W 090°04'49 3.6
2015-Feb-24 15:30N 29°34' W 090°57'5 4.7
2015-Feb-24 14:26N 29°37' W 091°02'4 5.1
2015-Feb-24 13:33N 29°38' W 091°07'4 4.0
2015-Feb-24 12:33N 29°41' W 091°10'3 3.2
2015-Feb-24 11:34N 29°40' W 091°14'3 2.7
2015-Feb-24 10:33N 29°39' W 091°17'5 4.6
2015-Feb-24 09:33N 29°39' W 091°22'5 5.1
2015-Feb-24 08:33N 29°40' W 091°27'5 4.8
2015-Feb-24 07:29N 29°43' W 091°33'  
2015-Feb-20 20:25N 29°23' W 094°53'  

Dump ship's entire track history